Time;durP1;ratioP1;P1;durP2;ratioP2;P2;SDS_P1;SDS_P2;PMS_P1;PMS_P2;Temp;Humidity;BMP_temperature;BMP_pressure;BME280_temperature;BME280_humidity;BME280_pressure;Samples;Min_cycle;Max_cycle;Signal;HPM_P1;HPM_P2
2023/06/09 04:19:16;;;;;;;;;;;;;;;21.80;50.70;96382.63;4247046;27;10343;-62
2023/06/09 04:21:19;;;;;;;;;;;;;;;22.04;50.59;96385.50;4247242;27;5822;-64
2023/06/09 04:23:23;;;;;;;;;;;;;;;22.23;49.85;96377.63;4248074;27;5649;-64
2023/06/09 04:25:26;;;;;;;;;;;;;;;22.36;49.73;96377.03;4248862;27;5634;-64
2023/06/09 04:27:30;;;;;;;;;;;;;;;22.49;49.88;96376.41;4248300;27;5824;-63
2023/06/09 04:29:33;;;;;;;;;;;;;;;22.60;49.62;96380.63;4248362;27;5653;-63
2023/06/09 04:31:42;;;;;;;;;;;;;;;22.75;49.51;96376.22;4248181;27;5767;-64
2023/06/09 04:33:48;;;;;;;;;;;;;;;22.81;49.50;96391.28;4247829;27;5649;-64
2023/06/09 04:35:54;;;;;;;;;;;;;;;22.85;49.32;96385.06;4247628;27;6450;-64
2023/06/09 04:38:00;;;;;;;;;;;;;;;22.87;49.29;96390.97;4248121;27;5768;-64
2023/06/09 04:40:09;;;;;;;;;;;;;;;22.89;48.94;96404.19;4247839;27;5654;-64
2023/06/09 04:42:14;;;;;;;;;;;;;;;22.94;49.13;96401.44;4240807;27;5626;-67
2023/06/09 04:44:17;;;;;;;;;;;;;;;23.02;49.16;96398.16;4247578;27;5712;-67
2023/06/09 04:46:24;;;;;;;;;;;;;;;23.05;48.54;96396.78;4246535;27;5803;-67
2023/06/09 04:48:29;;;;;;;;;;;;;;;23.10;48.88;96397.53;4244715;27;6371;-68
2023/06/09 04:50:33;;;;;;;;;;;;;;;23.15;48.58;96402.91;4247055;27;5691;-68
2023/06/09 04:52:39;;;;;;;;;;;;;;;23.13;48.48;96401.59;4244920;27;5769;-68
2023/06/09 04:54:44;;;;;;;;;;;;;;;23.10;48.75;96402.13;4229118;27;5646;-65
2023/06/09 04:56:52;;;;;;;;;;;;;;;23.10;48.75;96402.13;4238844;27;5634;-73
2023/06/09 04:58:56;;;;;;;;;;;;;;;23.07;48.73;96403.50;4242010;27;5592;-72
2023/06/09 05:00:59;;;;;;;;;;;;;;;23.14;48.20;96416.66;4247024;27;5691;-74
2023/06/09 05:03:02;;;;;;;;;;;;;;;23.09;48.42;96414.81;4246610;27;5720;-62
2023/06/09 05:05:07;;;;;;;;;;;;;;;23.09;48.00;96422.09;4247262;27;6343;-62
2023/06/09 05:07:11;;;;;;;;;;;;;;;23.10;47.92;96405.63;4242324;27;5738;-62
2023/06/09 05:09:16;;;;;;;;;;;;;;;23.10;47.92;96413.72;4246084;27;5646;-68
2023/06/09 05:11:20;;;;;;;;;;;;;;;23.09;48.18;96419.38;4232352;27;5668;-69
2023/06/09 05:13:24;;;;;;;;;;;;;;;23.03;47.72;96426.72;4247818;27;5647;-68
2023/06/09 05:15:27;;;;;;;;;;;;;;;22.92;47.94;96426.00;4247819;27;5763;-68
2023/06/09 05:17:33;;;;;;;;;;;;;;;22.89;48.10;96426.56;4230118;28;5699;-68
2023/06/09 05:19:37;;;;;;;;;;;;;;;22.88;47.95;96424.16;4234952;27;5092;-68
2023/06/09 05:21:41;;;;;;;;;;;;;;;22.88;48.03;96422.25;4229109;28;5827;-68
2023/06/09 05:23:45;;;;;;;;;;;;;;;22.93;48.10;96435.69;4228816;28;6395;-68
2023/06/09 05:25:50;;;;;;;;;;;;;;;23.02;47.65;96427.81;4229683;27;5657;-68
2023/06/09 05:27:54;;;;;;;;;;;;;;;23.14;47.94;96427.47;4237629;27;5637;-69
2023/06/09 05:29:57;;;;;;;;;;;;;;;23.26;47.80;96421.69;4245244;27;6434;-68
2023/06/09 05:32:01;;;;;;;;;;;;;;;23.30;47.40;96423.53;4229861;28;5790;-68
2023/06/09 05:34:04;;;;;;;;;;;;;;;23.48;46.92;96432.81;4226862;28;5733;-68
2023/06/09 05:36:08;;;;;;;;;;;;;;;23.59;46.95;96428.97;4234439;28;5746;-68
2023/06/09 05:38:11;;;;;;;;;;;;;;;23.68;46.90;96427.28;4235349;28;5715;-68
2023/06/09 05:40:14;;;;;;;;;;;;;;;23.66;47.23;96426.72;4235856;28;5641;-68
2023/06/09 05:42:23;;;;;;;;;;;;;;;23.62;47.28;96428.41;4236359;28;5625;-69
2023/06/09 05:44:26;;;;;;;;;;;;;;;23.56;47.26;96424.13;4236270;27;5836;-68
2023/06/09 05:46:30;;;;;;;;;;;;;;;23.58;47.44;96430.06;4236163;28;5749;-68
2023/06/09 05:48:34;;;;;;;;;;;;;;;23.57;47.63;96425.72;4234250;28;7221;-68
2023/06/09 05:50:37;;;;;;;;;;;;;;;23.54;47.61;96432.47;4222873;27;5769;-68
2023/06/09 05:52:41;;;;;;;;;;;;;;;23.55;47.38;96425.19;4234892;28;5842;-68
2023/06/09 05:54:47;;;;;;;;;;;;;;;23.60;46.95;96424.38;4234344;28;5122;-68
2023/06/09 05:56:53;;;;;;;;;;;;;;;23.60;47.20;96424.38;4235088;28;5145;-68
2023/06/09 05:59:03;;;;;;;;;;;;;;;23.75;47.15;96422.31;4234967;28;5659;-68
2023/06/09 06:01:07;;;;;;;;;;;;;;;23.99;46.63;96426.94;4235935;28;6216;-69
2023/06/09 06:03:11;;;;;;;;;;;;;;;24.17;46.28;96419.97;4235886;28;5662;-68
2023/06/09 06:05:14;;;;;;;;;;;;;;;24.33;46.36;96424.91;4232894;28;5666;-67
2023/06/09 06:07:20;;;;;;;;;;;;;;;24.45;46.10;96424.50;4234021;28;5662;-68
2023/06/09 06:09:23;;;;;;;;;;;;;;;24.58;46.21;96433.81;4234795;28;5666;-68
2023/06/09 06:11:26;;;;;;;;;;;;;;;24.73;45.84;96435.47;4234568;27;5774;-68
2023/06/09 06:13:31;;;;;;;;;;;;;;;24.81;45.75;96432.13;4235260;28;5659;-68
2023/06/09 06:15:36;;;;;;;;;;;;;;;24.90;45.44;96431.16;4235739;28;5753;-68
2023/06/09 06:17:39;;;;;;;;;;;;;;;24.96;45.54;96438.09;4235804;28;5630;-68
2023/06/09 06:19:43;;;;;;;;;;;;;;;25.01;45.02;96434.53;4235619;28;5630;-68
2023/06/09 06:21:46;;;;;;;;;;;;;;;25.08;45.26;96432.28;4234177;28;5853;-68
2023/06/09 06:23:50;;;;;;;;;;;;;;;25.12;45.13;96436.00;4234766;28;5725;-68
2023/06/09 06:25:53;;;;;;;;;;;;;;;25.17;44.74;96432.41;4235246;28;5650;-68
2023/06/09 06:27:59;;;;;;;;;;;;;;;25.20;44.87;96437.22;4235360;28;5642;-67
2023/06/09 06:30:03;;;;;;;;;;;;;;;25.20;44.68;96431.81;4235203;28;5634;-68
2023/06/09 06:32:08;;;;;;;;;;;;;;;25.22;44.17;96424.22;4234521;28;6609;-68
2023/06/09 06:34:12;;;;;;;;;;;;;;;25.23;44.56;96425.81;4235370;27;5740;-68
2023/06/09 06:36:21;;;;;;;;;;;;;;;25.26;44.51;96427.94;4235636;27;5658;-68
2023/06/09 06:38:24;;;;;;;;;;;;;;;25.27;44.37;96421.44;4234971;28;5861;-68
2023/06/09 06:40:29;;;;;;;;;;;;;;;25.31;44.06;96430.56;4234960;28;5832;-68
2023/06/09 06:42:33;;;;;;;;;;;;;;;25.33;44.49;96433.75;4235525;28;5667;-68
2023/06/09 06:44:36;;;;;;;;;;;;;;;25.34;44.23;96429.16;4235423;28;6335;-68
2023/06/09 06:46:39;;;;;;;;;;;;;;;25.37;44.00;96429.38;4235338;28;5650;-68
2023/06/09 06:48:45;;;;;;;;;;;;;;;25.41;43.76;96430.38;4235209;28;5650;-68
2023/06/09 06:50:48;;;;;;;;;;;;;;;25.46;43.85;96435.69;4235368;27;5786;-68
2023/06/09 06:52:52;;;;;;;;;;;;;;;25.48;43.79;96438.94;4235291;28;5657;-68
2023/06/09 06:54:55;;;;;;;;;;;;;;;25.52;44.08;96437.22;4235026;28;5774;-68
2023/06/09 06:57:00;;;;;;;;;;;;;;;25.50;43.66;96434.03;4235187;28;5650;-68
2023/06/09 06:59:04;;;;;;;;;;;;;;;25.56;43.66;96434.72;4234799;28;5709;-68
2023/06/09 07:01:07;;;;;;;;;;;;;;;25.55;43.80;96436.63;4234943;27;5634;-68
2023/06/09 07:03:12;;;;;;;;;;;;;;;25.52;43.75;96434.53;4234990;27;5663;-68
2023/06/09 07:05:17;;;;;;;;;;;;;;;25.44;43.73;96432.50;4235041;28;5670;-68
2023/06/09 07:07:25;;;;;;;;;;;;;;;25.39;43.74;96435.31;4233630;28;5645;-68
2023/06/09 07:09:28;;;;;;;;;;;;;;;25.30;44.00;96437.06;4234777;28;5642;-68
2023/06/09 07:11:32;;;;;;;;;;;;;;;25.27;44.10;96440.38;4234935;27;5638;-68
2023/06/09 07:13:36;;;;;;;;;;;;;;;25.24;43.84;96424.72;4234769;28;5740;-68
2023/06/09 07:15:40;;;;;;;;;;;;;;;25.21;43.93;96431.53;4234632;28;5756;-67
2023/06/09 07:17:43;;;;;;;;;;;;;;;25.18;43.73;96425.91;4234362;28;5686;-68
2023/06/09 07:19:47;;;;;;;;;;;;;;;25.15;43.87;96421.09;4234644;27;5646;-68
2023/06/09 07:21:52;;;;;;;;;;;;;;;25.17;44.05;96429.72;4234862;28;5658;-69
2023/06/09 07:23:55;;;;;;;;;;;;;;;25.12;43.84;96433.28;4234430;28;5638;-68
2023/06/09 07:25:59;;;;;;;;;;;;;;;25.06;44.07;96428.25;4234855;27;5071;-68
2023/06/09 07:28:03;;;;;;;;;;;;;;;25.01;43.84;96426.44;4234262;28;5666;-68
2023/06/09 07:30:09;;;;;;;;;;;;;;;24.92;44.19;96423.56;4234342;28;5809;-68
2023/06/09 07:32:13;;;;;;;;;;;;;;;24.85;44.00;96422.34;4226446;28;5802;-67
2023/06/09 07:34:17;;;;;;;;;;;;;;;24.85;44.07;96416.91;4234514;28;5646;-67
2023/06/09 07:36:20;;;;;;;;;;;;;;;24.84;44.15;96426.94;4234538;27;5650;-68
2023/06/09 07:38:27;;;;;;;;;;;;;;;24.83;44.13;96428.03;4234214;28;5669;-68
2023/06/09 07:40:30;;;;;;;;;;;;;;;24.79;43.98;96428.91;4234301;28;5638;-68
2023/06/09 07:42:34;;;;;;;;;;;;;;;24.77;44.38;96429.19;4234371;28;5646;-68
2023/06/09 07:44:37;;;;;;;;;;;;;;;24.75;44.44;96423.28;4234230;28;5642;-68
2023/06/09 07:46:44;;;;;;;;;;;;;;;24.76;44.13;96424.88;4234359;28;5659;-68
2023/06/09 07:48:47;;;;;;;;;;;;;;;24.74;44.23;96428.97;4234435;28;5656;-69
2023/06/09 07:50:51;;;;;;;;;;;;;;;24.70;44.60;96430.66;4234220;28;5725;-69
2023/06/09 07:53:04;;;;;;;;;;;;;;;24.73;44.24;96427.38;4234143;28;5658;-69
2023/06/09 07:55:10;;;;;;;;;;;;;;;24.68;44.01;96436.34;4233932;28;7164;-71
2023/06/09 07:57:17;;;;;;;;;;;;;;;24.66;44.40;96433.94;4226828;28;5720;-72
2023/06/09 07:59:21;;;;;;;;;;;;;;;24.65;44.40;96428.81;4234086;28;5655;-71
2023/06/09 08:01:24;;;;;;;;;;;;;;;24.68;44.56;96430.94;4234341;28;6458;-72
2023/06/09 08:03:29;;;;;;;;;;;;;;;24.65;44.15;96428.81;4234991;28;5725;-71
2023/06/09 08:05:33;;;;;;;;;;;;;;;24.55;44.56;96426.25;4236541;28;5751;-71
2023/06/09 08:07:39;;;;;;;;;;;;;;;24.50;44.85;96423.63;4235902;28;5791;-72
2023/06/09 08:09:43;;;;;;;;;;;;;;;24.52;44.91;96434.97;4234039;28;5737;-71
2023/06/09 08:11:48;;;;;;;;;;;;;;;24.47;44.91;96427.72;4234430;27;5759;-72
2023/06/09 08:13:52;;;;;;;;;;;;;;;24.47;44.66;96416.13;4234508;28;5657;-72
2023/06/09 08:15:55;;;;;;;;;;;;;;;24.39;44.75;96414.88;4234169;28;5646;-72
2023/06/09 08:17:58;;;;;;;;;;;;;;;24.37;45.32;96417.88;4233789;28;5642;-71
2023/06/09 08:20:03;;;;;;;;;;;;;;;24.38;45.11;96419.47;4233796;28;5645;-71
2023/06/09 08:22:08;;;;;;;;;;;;;;;24.40;45.19;96413.78;4233921;28;5658;-71
2023/06/09 08:24:11;;;;;;;;;;;;;;;24.39;45.17;96407.56;4233874;28;5654;-72
2023/06/09 08:26:14;;;;;;;;;;;;;;;24.38;44.89;96405.97;4234375;28;5820;-71
2023/06/09 08:28:19;;;;;;;;;;;;;;;24.35;44.80;96397.59;4233986;28;5661;-71
2023/06/09 08:30:23;;;;;;;;;;;;;;;24.33;45.11;96406.00;4234192;28;5654;-71
2023/06/09 08:32:26;;;;;;;;;;;;;;;24.33;44.79;96400.59;4233990;28;5643;-71
2023/06/09 08:34:33;;;;;;;;;;;;;;;24.35;44.97;96387.63;4234119;28;5635;-71
2023/06/09 08:36:36;;;;;;;;;;;;;;;24.40;44.78;96389.44;4233922;27;5670;-71
2023/06/09 08:38:40;;;;;;;;;;;;;;;24.46;45.30;96387.47;4233740;28;5663;-71
2023/06/09 08:40:44;;;;;;;;;;;;;;;24.49;44.82;96389.63;4233709;28;5951;-71
2023/06/09 08:42:50;;;;;;;;;;;;;;;24.49;45.14;96381.50;4233897;28;5642;-69
2023/06/09 08:45:00;;;;;;;;;;;;;;;24.52;44.94;96387.13;4233823;27;5816;-70
2023/06/09 08:47:07;;;;;;;;;;;;;;;24.55;44.75;96381.13;4233632;28;5642;-70
2023/06/09 08:49:11;;;;;;;;;;;;;;;24.56;44.71;96377.31;4225271;28;5647;-70
2023/06/09 08:51:15;;;;;;;;;;;;;;;24.56;44.56;96381.94;4233784;28;5785;-70
2023/06/09 08:53:20;;;;;;;;;;;;;;;24.54;44.62;96378.72;4233767;28;5666;-71
2023/06/09 08:55:27;;;;;;;;;;;;;;;24.53;44.95;96383.31;4236467;28;5488;-70
2023/06/09 08:57:31;;;;;;;;;;;;;;;24.53;44.69;96382.53;4237100;28;5730;-70
2023/06/09 08:59:35;;;;;;;;;;;;;;;24.56;44.57;96381.94;4237232;28;5733;-72
2023/06/09 09:01:41;;;;;;;;;;;;;;;24.56;44.67;96381.94;4236361;27;6851;-70
2023/06/09 09:03:46;;;;;;;;;;;;;;;24.56;44.82;96379.22;4236891;28;5693;-70
2023/06/09 09:05:54;;;;;;;;;;;;;;;24.57;44.81;96386.22;4236967;28;5650;-71
2023/06/09 09:07:58;;;;;;;;;;;;;;;24.59;44.65;96375.97;4236700;28;5639;-72
2023/06/09 09:10:02;;;;;;;;;;;;;;;24.57;44.23;96373.53;4236659;28;5650;-71
2023/06/09 09:12:10;;;;;;;;;;;;;;;24.58;44.24;96372.47;4236967;28;5778;-70
2023/06/09 09:14:14;;;;;;;;;;;;;;;24.59;44.43;96371.34;4228744;28;5672;-71
2023/06/09 09:16:18;;;;;;;;;;;;;;;24.58;44.37;96368.94;4236600;28;5654;-70
2023/06/09 09:18:23;;;;;;;;;;;;;;;24.57;44.16;96373.53;4236517;28;6375;-72
2023/06/09 09:20:33;;;;;;;;;;;;;;;24.59;44.50;96365.16;4236420;27;5713;-71
2023/06/09 09:22:48;;;;;;;;;;;;;;;24.57;44.13;96362.72;4236812;27;5670;-71
2023/06/09 09:24:51;;;;;;;;;;;;;;;24.56;43.96;96363.00;4236548;28;5143;-71
2023/06/09 09:26:56;;;;;;;;;;;;;;;24.57;44.02;96361.91;4236819;28;5697;-71
2023/06/09 09:29:02;;;;;;;;;;;;;;;24.63;43.93;96355.34;4236674;28;5737;-71
2023/06/09 09:31:08;;;;;;;;;;;;;;;24.70;44.24;96365.81;4231356;28;5711;-68
2023/06/09 09:33:12;;;;;;;;;;;;;;;24.71;43.88;96362.81;4228566;28;5701;-66
2023/06/09 09:35:17;;;;;;;;;;;;;;;24.74;43.85;96367.63;4235793;28;5646;-71
2023/06/09 09:37:20;;;;;;;;;;;;;;;24.75;43.78;96363.81;4233355;28;7445;-69
2023/06/09 09:39:23;;;;;;;;;;;;;;;24.78;43.90;96365.91;4235682;28;5642;-69
2023/06/09 09:41:27;;;;;;;;;;;;;;;24.80;43.73;96358.31;4235711;27;5646;-66
2023/06/09 09:43:31;;;;;;;;;;;;;;;24.80;43.76;96352.91;4235740;28;5740;-70
2023/06/09 09:45:37;;;;;;;;;;;;;;;24.82;43.82;96358.84;4236133;27;5745;-69
2023/06/09 09:47:40;;;;;;;;;;;;;;;24.83;43.67;96365.84;4234500;28;5597;-68
2023/06/09 09:49:55;;;;;;;;;;;;;;;24.83;43.97;96370.47;4234325;28;5715;-73
2023/06/09 09:52:00;;;;;;;;;;;;;;;24.84;43.76;96356.66;4235736;28;5654;-74
2023/06/09 09:54:04;;;;;;;;;;;;;;;24.85;43.87;96355.53;4236456;28;5096;-75
2023/06/09 09:56:07;;;;;;;;;;;;;;;24.88;43.90;96352.25;4234902;28;5649;-75
2023/06/09 09:58:11;;;;;;;;;;;;;;;24.84;43.83;96351.25;4236260;27;5713;-75
2023/06/09 10:00:17;;;;;;;;;;;;;;;24.84;43.84;96351.25;4235606;28;5642;-68
2023/06/09 10:02:24;;;;;;;;;;;;;;;24.87;43.83;96347.94;4235643;28;5670;-71
2023/06/09 10:04:29;;;;;;;;;;;;;;;24.90;43.42;96344.63;4235577;28;5658;-71
2023/06/09 10:06:34;;;;;;;;;;;;;;;24.88;43.85;96325.22;4233475;28;5658;-72
2023/06/09 10:08:42;;;;;;;;;;;;;;;24.94;43.44;96328.66;4234827;28;5638;-74
2023/06/09 10:10:47;;;;;;;;;;;;;;;24.95;43.49;96339.16;4224728;28;5088;-77
2023/06/09 10:12:53;;;;;;;;;;;;;;;24.97;43.99;96333.44;4235300;27;5623;-70
2023/06/09 10:14:57;;;;;;;;;;;;;;;24.98;43.93;96343.97;4235096;27;6348;-73
2023/06/09 10:17:01;;;;;;;;;;;;;;;24.98;43.60;96335.06;4235403;28;6342;-73
2023/06/09 10:19:05;;;;;;;;;;;;;;;24.99;43.85;96333.94;4235270;28;5650;-73
2023/06/09 10:21:10;;;;;;;;;;;;;;;25.00;44.05;96332.06;4235003;28;5805;-72
2023/06/09 10:23:15;;;;;;;;;;;;;;;25.04;43.87;96330.41;4228633;28;5650;-72
2023/06/09 10:25:20;;;;;;;;;;;;;;;25.07;43.89;96327.91;4234985;28;5674;-72
2023/06/09 10:27:24;;;;;;;;;;;;;;;25.11;44.21;96336.22;4230448;28;5653;-72
2023/06/09 10:29:28;;;;;;;;;;;;;;;25.11;43.99;96322.69;4226469;28;5684;-72
2023/06/09 10:31:34;;;;;;;;;;;;;;;25.12;44.17;96329.72;4234965;27;5650;-73
2023/06/09 10:33:43;;;;;;;;;;;;;;;25.11;43.86;96320.00;4235296;28;5697;-73
2023/06/09 10:35:49;;;;;;;;;;;;;;;25.14;44.27;96325.63;4234919;28;5634;-72
2023/06/09 10:37:53;;;;;;;;;;;;;;;25.18;44.37;96323.13;4233494;28;5619;-73
2023/06/09 10:40:06;;;;;;;;;;;;;;;25.20;43.98;96327.13;4234317;28;5729;-73
2023/06/09 10:42:22;;;;;;;;;;;;;;;25.15;44.54;96321.03;4226325;28;5759;-72
2023/06/09 10:44:34;;;;;;;;;;;;;;;25.17;44.65;96321.53;4235042;28;5705;-73
2023/06/09 10:46:42;;;;;;;;;;;;;;;25.13;44.34;96326.69;4235078;28;5665;-73
2023/06/09 10:48:48;;;;;;;;;;;;;;;25.16;44.53;96330.75;4226493;28;5624;-72
2023/06/09 10:50:52;;;;;;;;;;;;;;;25.20;44.58;96321.72;4234751;28;6355;-72
2023/06/09 10:52:56;;;;;;;;;;;;;;;25.24;44.77;96321.91;4234502;28;6383;-73
2023/06/09 10:55:12;;;;;;;;;;;;;;;25.26;44.31;96325.16;4234403;28;5678;-73
2023/06/09 10:57:37;;;;;;;;;;;;;;;25.27;44.56;96325.94;4227471;28;5753;-73
2023/06/09 10:59:58;;;;;;;;;;;;;;;25.26;44.85;96319.75;4234805;27;5754;-73
2023/06/09 11:02:21;;;;;;;;;;;;;;;25.26;44.71;96314.34;4234245;28;5642;-73
2023/06/09 11:04:52;;;;;;;;;;;;;;;25.30;44.77;96319.94;4228052;28;5646;-74
2023/06/09 11:07:12;;;;;;;;;;;;;;;25.32;44.66;96313.13;4234528;28;5624;-73
2023/06/09 11:09:15;;;;;;;;;;;;;;;25.31;45.02;96310.72;4220676;28;5054;-73
2023/06/09 11:11:19;;;;;;;;;;;;;;;25.33;44.78;96320.13;4234512;27;5654;-73
2023/06/09 11:13:40;;;;;;;;;;;;;;;25.32;45.10;96313.13;4233103;28;5671;-73
2023/06/09 11:16:02;;;;;;;;;;;;;;;25.36;44.78;96316.81;4233147;28;5646;-73
2023/06/09 11:18:17;;;;;;;;;;;;;;;25.37;44.78;96304.94;4233747;28;5638;-73
2023/06/09 11:20:23;;;;;;;;;;;;;;;25.39;44.78;96308.13;4227446;28;5817;-73
2023/06/09 11:22:26;;;;;;;;;;;;;;;25.41;44.72;96311.34;4234203;28;5725;-72
2023/06/09 11:24:47;;;;;;;;;;;;;;;25.43;44.49;96308.31;4233992;28;5852;-73
2023/06/09 11:26:51;;;;;;;;;;;;;;;25.46;45.07;96313.94;4234164;27;5638;-73
2023/06/09 11:28:56;;;;;;;;;;;;;;;25.45;44.79;96312.31;4234204;28;5642;-73
2023/06/09 11:31:02;;;;;;;;;;;;;;;25.47;44.82;96307.41;4232679;28;5745;-73
2023/06/09 11:33:06;;;;;;;;;;;;;;;25.51;44.95;96313.03;4234574;27;5654;-73
2023/06/09 11:35:10;;;;;;;;;;;;;;;25.49;45.05;96297.13;4234029;28;5646;-73
2023/06/09 11:37:18;;;;;;;;;;;;;;;25.50;44.95;96298.72;4234499;28;5798;-73
2023/06/09 11:39:21;;;;;;;;;;;;;;;25.51;45.09;96300.31;4234662;28;5642;-77
2023/06/09 11:41:25;;;;;;;;;;;;;;;25.54;45.46;96288.09;4234890;28;5657;-73
2023/06/09 11:43:28;;;;;;;;;;;;;;;25.55;44.92;96285.06;4234351;28;6336;-73
2023/06/09 11:45:34;;;;;;;;;;;;;;;25.57;44.96;96282.06;4231462;27;5974;-73
2023/06/09 11:47:41;;;;;;;;;;;;;;;25.59;44.97;96285.25;4225118;28;5774;-72
2023/06/09 11:49:44;;;;;;;;;;;;;;;25.57;44.99;96275.84;4234562;28;5662;-72
2023/06/09 11:51:59;;;;;;;;;;;;;;;25.58;45.14;96283.66;4234036;28;5818;-73
2023/06/09 11:54:02;;;;;;;;;;;;;;;25.57;45.14;96279.34;4234234;28;5658;-74
2023/06/09 11:56:08;;;;;;;;;;;;;;;25.61;44.76;96288.50;4234132;28;5657;-73
2023/06/09 11:58:12;;;;;;;;;;;;;;;25.61;44.79;96284.97;4225980;28;5616;-72
2023/06/09 12:00:18;;;;;;;;;;;;;;;25.63;44.88;96288.19;4234104;28;5642;-73
2023/06/09 12:02:26;;;;;;;;;;;;;;;25.64;44.77;96284.38;4234405;28;5724;-72
2023/06/09 12:04:30;;;;;;;;;;;;;;;25.66;44.75;96290.28;4231668;28;5864;-73
2023/06/09 12:06:36;;;;;;;;;;;;;;;25.63;44.68;96290.91;4225000;28;5650;-72
2023/06/09 12:08:39;;;;;;;;;;;;;;;25.66;44.78;96301.91;4233671;28;5650;-72
2023/06/09 12:10:43;;;;;;;;;;;;;;;25.68;45.03;96299.69;4233431;27;5630;-72
2023/06/09 12:12:48;;;;;;;;;;;;;;;25.71;44.93;96303.72;4233819;28;5638;-72
2023/06/09 12:14:51;;;;;;;;;;;;;;;25.73;45.14;96299.66;4233782;28;5634;-72
2023/06/09 12:16:55;;;;;;;;;;;;;;;25.76;45.33;96306.34;4233479;28;6395;-72
2023/06/09 12:19:01;;;;;;;;;;;;;;;25.76;45.75;96301.75;4233644;28;5733;-72
2023/06/09 12:21:06;;;;;;;;;;;;;;;25.77;45.53;96294.41;4233017;28;6343;-72
2023/06/09 12:23:13;;;;;;;;;;;;;;;25.77;45.68;96299.84;4233647;28;5789;-72
2023/06/09 12:25:24;;;;;;;;;;;;;;;25.76;45.73;96295.53;4224968;27;5707;-73
2023/06/09 12:27:28;;;;;;;;;;;;;;;25.76;45.73;96293.63;4233705;28;5638;-72
2023/06/09 12:29:31;;;;;;;;;;;;;;;25.77;45.58;96287.09;4234756;28;5831;-70
2023/06/09 12:31:35;;;;;;;;;;;;;;;25.78;45.48;96282.47;4236346;28;5636;-70
2023/06/09 12:33:39;;;;;;;;;;;;;;;25.78;45.75;96282.47;4236487;28;5708;-72
2023/06/09 12:35:44;;;;;;;;;;;;;;;25.85;45.41;96276.66;4236779;28;5675;-70
2023/06/09 12:37:48;;;;;;;;;;;;;;;25.90;45.16;96274.63;4236730;27;6085;-67
2023/06/09 12:40:03;;;;;;;;;;;;;;;25.92;45.19;96267.00;4235171;28;5658;-66
2023/06/09 12:42:11;;;;;;;;;;;;;;;25.95;45.34;96266.44;4229415;28;5650;-69
2023/06/09 12:44:22;;;;;;;;;;;;;;;25.97;45.02;96266.91;4220565;28;5671;-68
2023/06/09 12:46:29;;;;;;;;;;;;;;;26.00;45.08;96268.22;4236596;28;5638;-68
2023/06/09 12:48:32;;;;;;;;;;;;;;;26.01;45.02;96259.78;4236863;28;5745;-66
2023/06/09 12:50:36;;;;;;;;;;;;;;;26.07;44.89;96261.28;4236467;27;5752;-69
2023/06/09 12:52:41;;;;;;;;;;;;;;;26.11;44.95;96261.47;4237256;28;5837;-66
2023/06/09 12:54:50;;;;;;;;;;;;;;;26.13;44.71;96260.03;4236511;27;5766;-70
2023/06/09 12:57:11;;;;;;;;;;;;;;;26.18;45.04;96263.75;4228395;28;5825;-71
2023/06/09 12:59:14;;;;;;;;;;;;;;;26.20;44.97;96261.53;4236395;28;5634;-71
2023/06/09 13:01:18;;;;;;;;;;;;;;;26.21;44.59;96263.94;4236562;27;5714;-71
2023/06/09 13:03:21;;;;;;;;;;;;;;;26.24;44.53;96257.09;4228104;27;5745;-72
2023/06/09 13:05:30;;;;;;;;;;;;;;;26.27;44.35;96267.31;4237221;28;5376;-70
2023/06/09 13:07:33;;;;;;;;;;;;;;;26.29;44.27;96259.72;4236177;28;5658;-71
2023/06/09 13:09:37;;;;;;;;;;;;;;;26.33;44.15;96268.81;4236571;28;5650;-73
2023/06/09 13:11:41;;;;;;;;;;;;;;;26.36;44.37;96270.91;4236812;28;5616;-71
2023/06/09 13:13:44;;;;;;;;;;;;;;;26.39;44.22;96262.22;4234880;28;5720;-68
2023/06/09 13:15:47;;;;;;;;;;;;;;;26.41;43.86;96270.84;4236187;28;5650;-70
2023/06/09 13:17:52;;;;;;;;;;;;;;;26.41;43.82;96270.84;4236305;28;5646;-71
2023/06/09 13:19:55;;;;;;;;;;;;;;;26.42;43.93;96275.16;4236265;27;5639;-70
2023/06/09 13:21:58;;;;;;;;;;;;;;;26.42;44.11;96269.72;4236245;28;5616;-70
2023/06/09 13:24:01;;;;;;;;;;;;;;;26.44;44.19;96259.38;4234445;28;5641;-69
2023/06/09 13:26:06;;;;;;;;;;;;;;;26.47;43.73;96275.00;4238101;28;5670;-78
2023/06/09 13:28:10;;;;;;;;;;;;;;;26.50;44.06;96266.25;4237276;27;5736;-72
2023/06/09 13:30:13;;;;;;;;;;;;;;;26.51;43.78;96254.34;4226190;27;5733;-66
2023/06/09 13:32:17;;;;;;;;;;;;;;;26.54;43.98;96256.44;4234344;27;5642;-75
2023/06/09 13:34:20;;;;;;;;;;;;;;;26.56;43.90;96256.91;4229919;27;5690;-73
2023/06/09 13:36:23;;;;;;;;;;;;;;;26.56;43.99;96251.50;4236647;28;5786;-77
2023/06/09 13:38:27;;;;;;;;;;;;;;;26.61;43.79;96264.91;4229872;27;5659;-75
2023/06/09 13:40:30;;;;;;;;;;;;;;;26.63;44.15;96270.84;4227105;27;5878;-65
2023/06/09 13:42:36;;;;;;;;;;;;;;;26.63;44.15;96264.63;4227941;28;5643;-80
2023/06/09 13:44:39;;;;;;;;;;;;;;;26.61;44.03;96261.41;4226358;27;5738;-64
2023/06/09 13:46:43;;;;;;;;;;;;;;;26.60;44.24;96266.00;4218273;27;5750;-71
2023/06/09 13:48:46;;;;;;;;;;;;;;;26.56;44.21;96272.38;4220348;27;5742;-71
2023/06/09 13:50:52;;;;;;;;;;;;;;;26.55;44.29;96271.56;4228041;27;5722;-72
2023/06/09 13:52:56;;;;;;;;;;;;;;;26.55;44.24;96270.78;4230200;28;5651;-71
2023/06/09 13:54:59;;;;;;;;;;;;;;;26.53;44.28;96265.66;4227029;27;5719;-70
2023/06/09 13:57:02;;;;;;;;;;;;;;;26.54;44.32;96269.97;4222782;27;6345;-68
2023/06/09 13:59:06;;;;;;;;;;;;;;;26.55;44.49;96268.88;4229180;27;5813;-69
2023/06/09 14:01:10;;;;;;;;;;;;;;;26.54;44.20;96259.13;4224083;28;5569;-66
2023/06/09 14:03:13;;;;;;;;;;;;;;;26.55;44.45;96260.72;4227658;27;5754;-63
2023/06/09 14:05:17;;;;;;;;;;;;;;;26.54;44.43;96253.72;4223242;27;6574;-64
2023/06/09 14:07:20;;;;;;;;;;;;;;;26.51;44.26;96251.63;4226672;28;5805;-72
2023/06/09 14:09:23;;;;;;;;;;;;;;;26.47;44.07;96250.63;4225067;28;5829;-65
2023/06/09 14:11:26;;;;;;;;;;;;;;;26.47;44.22;96255.25;4225224;27;5638;-72
2023/06/09 14:13:32;;;;;;;;;;;;;;;26.47;44.44;96261.47;4225532;28;5084;-70
2023/06/09 14:15:36;;;;;;;;;;;;;;;26.46;44.26;96262.56;4233117;27;5744;-69
2023/06/09 14:17:42;;;;;;;;;;;;;;;26.45;44.26;96263.69;4230885;27;5921;-71
2023/06/09 14:19:46;;;;;;;;;;;;;;;26.45;44.52;96268.31;4230417;28;5657;-69
2023/06/09 14:21:49;;;;;;;;;;;;;;;26.43;44.39;96270.53;4231239;28;5806;-69
2023/06/09 14:23:52;;;;;;;;;;;;;;;26.42;44.41;96268.94;4220350;27;5835;-68
2023/06/09 14:25:55;;;;;;;;;;;;;;;26.42;44.50;96272.44;4223426;27;5654;-68
2023/06/09 14:27:58;;;;;;;;;;;;;;;26.39;44.25;96275.78;4231825;28;5736;-72
2023/06/09 14:30:01;;;;;;;;;;;;;;;26.37;44.56;96267.13;4226647;28;5739;-74
2023/06/09 14:32:06;;;;;;;;;;;;;;;26.36;44.61;96270.91;4227867;27;5826;-70
2023/06/09 14:34:09;;;;;;;;;;;;;;;26.36;44.52;96279.88;4232629;28;5075;-68
2023/06/09 14:36:12;;;;;;;;;;;;;;;26.34;44.78;96273.13;4230587;27;6445;-66
2023/06/09 14:38:15;;;;;;;;;;;;;;;26.34;44.66;96281.25;4226030;27;5650;-66
2023/06/09 14:40:18;;;;;;;;;;;;;;;26.33;44.48;96275.03;4231832;28;5748;-67
2023/06/09 14:42:21;;;;;;;;;;;;;;;26.33;44.83;96282.38;4221273;28;5771;-66
2023/06/09 14:44:24;;;;;;;;;;;;;;;26.30;45.06;96275.66;4229805;28;5277;-77
2023/06/09 14:46:27;;;;;;;;;;;;;;;26.28;45.22;96279.78;4226664;27;5734;-68
2023/06/09 14:48:32;;;;;;;;;;;;;;;26.27;45.10;96272.75;4222382;28;6008;-71
2023/06/09 14:50:37;;;;;;;;;;;;;;;26.26;45.39;96280.06;4221064;27;7788;-71
2023/06/09 14:52:40;;;;;;;;;;;;;;;26.26;45.50;96276.56;4220906;27;5828;-70
2023/06/09 14:54:43;;;;;;;;;;;;;;;26.23;45.51;96272.56;4223647;27;5750;-70
2023/06/09 14:56:47;;;;;;;;;;;;;;;26.22;45.53;96276.38;4218663;27;5675;-70
2023/06/09 14:58:50;;;;;;;;;;;;;;;26.21;45.53;96279.41;4226647;27;5790;-70
2023/06/09 15:00:53;;;;;;;;;;;;;;;26.21;45.70;96274.78;4227975;28;5661;-70
2023/06/09 15:02:58;;;;;;;;;;;;;;;26.19;45.72;96281.63;4226562;27;5846;-70
2023/06/09 15:05:03;;;;;;;;;;;;;;;26.17;45.64;96273.00;4226427;27;5950;-71
2023/06/09 15:07:10;;;;;;;;;;;;;;;26.18;45.70;96288.13;4223682;27;5829;-69
2023/06/09 15:09:13;;;;;;;;;;;;;;;26.18;45.72;96285.44;4224834;27;5861;-65
2023/06/09 15:11:16;;;;;;;;;;;;;;;26.16;45.66;96298.47;4228012;27;5703;-65
2023/06/09 15:13:19;;;;;;;;;;;;;;;26.13;45.75;96289.84;4222094;28;5710;-66
2023/06/09 15:15:27;;;;;;;;;;;;;;;26.11;45.87;96292.06;4223871;27;5659;-66
2023/06/09 15:17:30;;;;;;;;;;;;;;;26.11;45.85;96289.34;4219708;28;5974;-66
2023/06/09 15:19:33;;;;;;;;;;;;;;;26.12;46.04;96288.25;4230473;28;5721;-66